createdAt,value
2023-01-11T00:03:02.997Z,22.90
2023-01-11T00:06:05.016Z,6.90
2023-01-11T00:09:07.043Z,2.67
2023-01-11T00:12:09.158Z,5.22
2023-01-11T00:15:11.606Z,8.18
2023-01-11T00:18:13.585Z,3.90
2023-01-11T00:21:17.908Z,2.30
2023-01-11T00:24:19.824Z,3.35
2023-01-11T00:27:21.760Z,3.47
2023-01-11T00:30:23.691Z,4.57
2023-01-11T00:33:25.699Z,6.93
2023-01-11T00:36:27.754Z,2.42
2023-01-11T00:39:29.636Z,3.88
2023-01-11T00:42:31.621Z,4.05
2023-01-11T00:45:33.594Z,4.40
2023-01-11T00:48:35.498Z,2.72
2023-01-11T00:51:37.387Z,4.07
2023-01-11T00:54:41.084Z,3.38
2023-01-11T00:57:43.029Z,1.92
2023-01-11T01:00:45.136Z,2.38
2023-01-11T01:03:47.041Z,3.08
2023-01-11T01:06:49.011Z,3.35
2023-01-11T01:09:50.991Z,2.20
2023-01-11T01:12:52.896Z,4.15
2023-01-11T01:15:58.130Z,3.15
2023-01-11T01:19:00.458Z,3.22
2023-01-11T01:22:02.848Z,1.70
2023-01-11T01:25:05.326Z,3.70
2023-01-11T01:28:07.218Z,4.60
2023-01-11T01:31:09.164Z,3.80
2023-01-11T01:34:11.636Z,3.30
2023-01-11T01:37:13.609Z,3.05
2023-01-11T01:40:15.604Z,5.40
2023-01-11T01:43:18.243Z,2.50
2023-01-11T01:49:23.241Z,3.97
2023-01-11T01:52:26.790Z,1.90
2023-01-11T01:55:33.052Z,3.08
2023-01-11T01:58:40.353Z,2.38
2023-01-11T02:01:42.458Z,4.22
2023-01-11T02:04:46.625Z,3.47
2023-01-11T02:07:48.685Z,3.85
2023-01-11T02:10:53.686Z,2.88
2023-01-11T02:14:00.999Z,2.60
2023-01-11T02:17:03.013Z,5.00
2023-01-11T02:20:34.555Z,2.42
2023-01-11T02:24:18.803Z,2.83
2023-01-11T02:27:48.835Z,5.25
2023-01-11T02:31:02.247Z,3.90
2023-01-11T02:34:16.458Z,3.97
2023-01-11T02:37:41.881Z,2.85
2023-01-11T02:40:54.532Z,2.65
2023-01-11T02:44:00.320Z,2.03
2023-01-11T02:47:07.322Z,2.35
2023-01-11T02:50:24.021Z,2.65
2023-01-11T02:53:39.912Z,1.70
2023-01-11T02:56:46.303Z,3.60
2023-01-11T02:59:50.121Z,2.40
2023-01-11T03:03:17.535Z,1.42
2023-01-11T03:06:39.755Z,1.73
2023-01-11T03:10:17.166Z,3.08
2023-01-11T03:13:53.668Z,2.13
2023-01-11T03:17:10.649Z,2.42
2023-01-11T03:20:25.448Z,2.15
2023-01-11T03:23:51.179Z,2.42
2023-01-11T03:27:12.233Z,1.85
2023-01-11T03:30:39.072Z,2.97
2023-01-11T03:33:52.725Z,2.08
2023-01-11T03:36:56.739Z,1.95
2023-01-11T03:40:09.602Z,3.72
2023-01-11T03:43:16.442Z,2.65
2023-01-11T03:46:24.029Z,2.58
2023-01-11T03:49:38.579Z,1.50
2023-01-11T03:52:43.229Z,2.97
2023-01-11T03:55:47.922Z,2.88
2023-01-11T03:58:49.972Z,2.13
2023-01-11T04:01:54.445Z,2.83
2023-01-11T04:04:56.457Z,5.55
2023-01-11T04:07:58.393Z,2.83
2023-01-11T04:11:00.260Z,2.58
2023-01-11T04:14:02.147Z,2.45
2023-01-11T04:17:05.256Z,2.88
2023-01-11T04:20:08.701Z,3.30
2023-01-11T04:23:10.608Z,2.70
2023-01-11T04:26:12.921Z,1.77
2023-01-11T04:29:14.788Z,3.63
2023-01-11T04:32:16.652Z,3.67
2023-01-11T04:35:18.811Z,2.60
2023-01-11T04:38:20.678Z,3.20
2023-01-11T04:41:23.702Z,2.90
2023-01-11T04:44:25.728Z,2.38
2023-01-11T04:47:27.764Z,2.72
2023-01-11T04:50:29.697Z,3.15
2023-01-11T04:53:31.791Z,2.28
2023-01-11T04:56:34.115Z,2.10
2023-01-11T04:59:35.979Z,1.80
2023-01-11T05:02:38.792Z,2.38
2023-01-11T05:05:40.624Z,1.73
2023-01-11T05:08:47.086Z,3.05
2023-01-11T05:11:48.960Z,2.10
2023-01-11T05:14:51.149Z,1.48
2023-01-11T05:17:53.173Z,1.98
2023-01-11T05:20:57.276Z,1.60
2023-01-11T05:24:01.038Z,2.00
2023-01-11T05:27:02.956Z,2.83
2023-01-11T05:30:05.200Z,1.13
2023-01-11T05:33:07.105Z,2.50
2023-01-11T05:36:18.245Z,1.25
2023-01-11T05:39:20.147Z,1.63
2023-01-11T05:42:22.411Z,1.95
2023-01-11T05:45:24.294Z,1.83
2023-01-11T05:48:26.409Z,1.10
2023-01-11T05:51:29.595Z,2.30
2023-01-11T05:54:31.602Z,1.85
2023-01-11T05:57:35.971Z,1.65
2023-01-11T06:00:37.890Z,1.15
2023-01-11T06:03:39.754Z,1.38
2023-01-11T06:06:41.805Z,2.28
2023-01-11T06:09:43.628Z,1.08
2023-01-11T06:12:48.714Z,0.82
2023-01-11T06:15:50.620Z,3.53
2023-01-11T06:18:53.724Z,1.35
2023-01-11T06:21:55.611Z,1.52
2023-01-11T06:24:57.423Z,2.85
2023-01-11T06:27:59.818Z,1.67
2023-01-11T06:31:01.925Z,1.85
2023-01-11T06:34:03.898Z,2.47
2023-01-11T06:37:05.764Z,1.48
2023-01-11T06:40:08.180Z,1.98
2023-01-11T06:43:10.420Z,1.88
2023-01-11T06:46:13.880Z,0.93
2023-01-11T06:49:15.738Z,4.07
2023-01-11T06:52:17.619Z,3.25
2023-01-11T06:55:19.699Z,1.92
2023-01-11T06:58:23.533Z,1.88
2023-01-11T07:01:25.633Z,1.08
2023-01-11T07:04:27.567Z,0.95
2023-01-11T07:07:29.599Z,1.02
2023-01-11T07:10:31.512Z,2.22
2023-01-11T07:13:33.472Z,1.90
2023-01-11T07:16:35.373Z,1.88
2023-01-11T07:19:37.328Z,1.55
2023-01-11T07:22:39.138Z,1.65
2023-01-11T07:25:41.101Z,1.45
2023-01-11T07:28:43.739Z,1.00
2023-01-11T07:34:48.169Z,0.82
2023-01-11T07:37:50.015Z,2.15
2023-01-11T07:40:51.953Z,1.33
2023-01-11T07:43:53.858Z,2.08
2023-01-11T07:46:55.815Z,1.92
2023-01-11T07:49:57.768Z,2.28
2023-01-11T07:52:59.587Z,2.10
2023-01-11T07:56:01.551Z,3.15
2023-01-11T07:59:03.426Z,4.35
2023-01-11T08:02:05.247Z,4.72
2023-01-11T08:05:07.680Z,2.42
2023-01-11T08:11:11.897Z,3.35
2023-01-11T08:14:16.033Z,1.60
2023-01-11T08:17:17.933Z,2.08
2023-01-11T08:20:19.883Z,2.20
2023-01-11T08:23:21.865Z,3.65
2023-01-11T08:26:24.997Z,2.05
2023-01-11T08:29:27.198Z,2.20
2023-01-11T08:32:29.372Z,1.35
2023-01-11T08:35:32.465Z,1.48
2023-01-11T08:38:34.598Z,1.20
2023-01-11T08:41:36.478Z,4.35
2023-01-11T08:44:38.309Z,2.80
2023-01-11T08:47:42.667Z,2.30
2023-01-11T08:50:44.556Z,2.03
2023-01-11T08:53:46.373Z,2.70
2023-01-11T08:56:50.517Z,2.60
2023-01-11T08:59:52.376Z,5.40
2023-01-11T09:02:54.402Z,5.03
2023-01-11T09:05:56.663Z,5.63
2023-01-11T09:08:58.564Z,1.83
2023-01-11T09:12:00.466Z,2.25
2023-01-11T09:15:02.585Z,2.80
2023-01-11T09:18:04.616Z,4.53
2023-01-11T09:21:06.482Z,2.85
2023-01-11T09:24:08.663Z,1.38
2023-01-11T09:27:10.737Z,3.63
2023-01-11T09:30:14.842Z,1.77
2023-01-11T09:33:16.664Z,3.28
2023-01-11T09:36:18.532Z,0.98
2023-01-11T09:39:20.512Z,1.17
2023-01-11T09:42:27.940Z,1.13
2023-01-11T09:45:30.939Z,0.95
2023-01-11T09:51:39.809Z,1.80
2023-01-11T09:54:41.747Z,1.92
2023-01-11T09:57:57.047Z,2.05
2023-01-11T10:01:36.300Z,2.60
2023-01-11T10:04:59.833Z,1.55
2023-01-11T10:22:39.139Z,2.60
2023-01-11T10:25:44.845Z,4.53
2023-01-11T10:29:01.512Z,2.25
2023-01-11T10:32:03.653Z,2.13
2023-01-11T10:35:31.280Z,1.92
2023-01-11T10:38:37.964Z,3.45
2023-01-11T10:41:48.253Z,3.40
2023-01-11T10:45:18.255Z,2.97
2023-01-11T10:48:37.085Z,2.58
2023-01-11T10:51:45.928Z,2.15
2023-01-11T10:54:48.648Z,2.17
2023-01-11T10:58:14.376Z,2.75
2023-01-11T11:01:28.428Z,2.80
2023-01-11T11:04:36.395Z,3.42
2023-01-11T11:08:07.085Z,3.03
2023-01-11T11:11:13.671Z,3.70
2023-01-11T11:14:27.909Z,2.78
2023-01-11T11:17:39.095Z,4.68
2023-01-11T11:20:41.341Z,3.45
2023-01-11T11:23:43.630Z,2.53
2023-01-11T11:26:51.698Z,3.05
2023-01-11T11:29:55.962Z,4.25
2023-01-11T11:33:01.319Z,2.47
2023-01-11T11:36:09.285Z,2.92
2023-01-11T11:39:18.269Z,2.45
2023-01-11T11:42:21.318Z,2.42
2023-01-11T11:45:23.212Z,2.35
2023-01-11T11:48:27.442Z,2.78
2023-01-11T12:03:28.550Z,2.90
2023-01-11T12:06:30.893Z,3.20
2023-01-11T12:09:34.794Z,3.53
2023-01-11T12:12:57.127Z,2.80
2023-01-11T12:16:05.469Z,3.95
2023-01-11T12:19:41.211Z,2.33
2023-01-11T12:22:43.057Z,3.67
2023-01-11T12:25:59.598Z,3.35
2023-01-11T12:29:23.226Z,2.10
2023-01-11T12:32:47.002Z,3.33
2023-01-11T12:35:51.904Z,2.53
2023-01-11T12:39:06.088Z,2.28
2023-01-11T12:42:42.489Z,4.05
2023-01-11T12:45:55.207Z,2.45
2023-01-11T12:49:26.145Z,3.45
2023-01-11T12:52:43.389Z,4.18
2023-01-11T12:56:05.793Z,4.10
2023-01-11T12:59:13.687Z,8.32
2023-01-11T13:02:41.638Z,4.47
2023-01-11T13:06:06.765Z,3.92
2023-01-11T13:09:26.864Z,5.13
2023-01-11T13:13:10.541Z,4.13
2023-01-11T13:16:15.515Z,3.10
2023-01-11T13:19:36.128Z,3.60
2023-01-11T13:22:43.779Z,2.85
2023-01-11T13:25:49.019Z,3.42
2023-01-11T13:29:13.458Z,5.07
2023-01-11T13:32:19.852Z,5.18
2023-01-11T13:35:55.996Z,6.63
2023-01-11T13:39:16.139Z,7.68
2023-01-11T13:42:26.639Z,6.57
2023-01-11T13:45:36.982Z,2.40
2023-01-11T13:48:44.360Z,4.63
2023-01-11T13:52:14.745Z,3.10
2023-01-11T13:55:34.980Z,3.47
2023-01-11T13:58:55.368Z,2.90
2023-01-11T14:01:59.676Z,3.50
2023-01-11T14:05:17.170Z,3.90
2023-01-11T14:08:48.833Z,5.28
2023-01-11T14:11:59.973Z,4.50
2023-01-11T14:15:17.024Z,4.45
2023-01-11T14:18:18.876Z,3.45
2023-01-11T14:21:47.137Z,4.07
2023-01-11T14:25:01.813Z,3.75
2023-01-11T14:32:04.360Z,4.38
2023-01-11T14:35:21.490Z,3.97
2023-01-11T14:38:50.385Z,3.47
2023-01-11T14:42:07.011Z,3.58
2023-01-11T14:45:37.570Z,5.35
2023-01-11T14:49:13.984Z,4.15
2023-01-11T14:52:38.525Z,3.45
2023-01-11T14:55:43.574Z,4.65
2023-01-11T14:59:02.365Z,4.32
2023-01-11T15:02:04.515Z,6.65
2023-01-11T15:05:10.514Z,4.10
2023-01-11T15:08:15.484Z,6.63
2023-01-11T15:11:40.577Z,5.07
2023-01-11T15:14:53.257Z,8.52
2023-01-11T15:17:57.169Z,5.55
2023-01-11T15:21:05.053Z,5.75
2023-01-11T15:24:29.824Z,4.65
2023-01-11T15:27:37.202Z,4.32
2023-01-11T15:30:39.257Z,5.88
2023-01-11T15:33:54.501Z,6.38
2023-01-11T15:37:02.433Z,8.68
2023-01-11T15:40:15.980Z,6.47
2023-01-11T15:43:44.977Z,8.50
2023-01-11T15:47:09.233Z,6.43
2023-01-11T15:50:29.866Z,10.43
2023-01-11T15:54:05.935Z,9.00
2023-01-11T15:57:17.250Z,9.68
2023-01-11T16:00:37.399Z,7.15
2023-01-11T16:07:26.549Z,6.45
2023-01-11T16:13:35.884Z,12.00
2023-01-11T16:16:43.672Z,10.85
2023-01-11T16:19:45.734Z,7.90
2023-01-11T16:22:53.845Z,9.00
2023-01-11T16:25:58.679Z,6.47
2023-01-11T16:29:07.742Z,12.77
2023-01-11T16:32:27.967Z,12.05
2023-01-11T16:35:29.846Z,4.30
2023-01-11T16:38:37.685Z,9.48
2023-01-11T16:42:05.478Z,7.53
2023-01-11T16:45:15.416Z,7.32
2023-01-11T16:48:22.527Z,7.13
2023-01-11T16:51:24.408Z,9.40
2023-01-11T16:57:43.704Z,6.30
2023-01-11T17:00:57.825Z,9.02
2023-01-11T17:07:24.113Z,7.47
2023-01-11T17:10:29.054Z,4.40
2023-01-11T17:14:06.276Z,7.13
2023-01-11T17:17:10.780Z,6.03
2023-01-11T17:20:25.713Z,6.47
2023-01-11T17:23:27.701Z,8.75
2023-01-11T17:26:38.163Z,9.07
2023-01-11T17:29:43.210Z,9.27
2023-01-11T17:32:47.822Z,11.95
2023-01-11T17:35:49.988Z,8.50
2023-01-11T17:38:54.298Z,8.85
2023-01-11T17:41:59.282Z,7.78
2023-01-11T17:45:03.822Z,3.83
2023-01-11T17:48:15.888Z,8.73
2023-01-11T17:51:34.675Z,8.35
2023-01-11T17:54:39.482Z,10.32
2023-01-11T17:58:13.347Z,9.75
2023-01-11T18:01:24.022Z,7.63
2023-01-11T18:04:27.345Z,6.35
2023-01-11T18:07:29.897Z,7.32
2023-01-11T18:10:36.344Z,5.90
2023-01-11T18:13:38.278Z,5.50
2023-01-11T18:17:05.598Z,9.02
2023-01-11T18:20:10.769Z,8.65
2023-01-11T18:23:12.677Z,9.13
2023-01-11T18:26:28.909Z,5.95
2023-01-11T18:29:36.640Z,10.30
2023-01-11T18:32:42.220Z,8.27
2023-01-11T18:35:46.776Z,10.65
2023-01-11T18:38:49.325Z,5.75
2023-01-11T18:41:51.462Z,6.18
2023-01-11T18:44:53.342Z,5.68
2023-01-11T18:47:55.216Z,9.45
2023-01-11T18:50:57.725Z,10.80
2023-01-11T18:53:59.612Z,11.27
2023-01-11T18:57:01.474Z,9.07
2023-01-11T19:00:04.006Z,7.75
2023-01-11T19:03:07.294Z,8.95
2023-01-11T19:06:12.479Z,6.70
2023-01-11T19:09:20.755Z,8.35
2023-01-11T19:12:28.771Z,7.35
2023-01-11T19:15:30.719Z,6.43
2023-01-11T19:18:35.092Z,7.97
2023-01-11T19:21:37.367Z,9.68
2023-01-11T19:24:39.999Z,10.75
2023-01-11T19:27:41.923Z,8.63
2023-01-11T19:30:43.771Z,10.63
2023-01-11T19:33:46.442Z,5.82
2023-01-11T19:36:49.846Z,6.78
2023-01-11T19:39:51.707Z,7.18
2023-01-11T19:42:53.570Z,8.63
2023-01-11T19:45:59.244Z,6.68
2023-01-11T19:49:01.147Z,7.85
2023-01-11T19:55:10.056Z,8.23
2023-01-11T19:58:12.144Z,7.75
2023-01-11T20:01:17.481Z,5.50
2023-01-11T20:04:19.418Z,7.80
2023-01-11T20:07:21.398Z,6.45
2023-01-11T20:10:23.267Z,6.68
2023-01-11T20:13:25.154Z,6.22
2023-01-11T20:16:26.980Z,8.38
2023-01-11T20:19:34.891Z,5.15
2023-01-11T20:22:36.757Z,9.73
2023-01-11T20:25:40.779Z,6.05
2023-01-11T20:28:49.168Z,6.93
2023-01-11T20:31:51.035Z,7.28
2023-01-11T20:34:52.917Z,7.43
2023-01-11T20:37:55.099Z,12.77
2023-01-11T20:40:57.085Z,6.40
2023-01-11T20:43:59.395Z,6.07
2023-01-11T20:47:01.225Z,8.88
2023-01-11T20:50:05.640Z,9.13
2023-01-11T20:53:07.506Z,6.70
2023-01-11T20:56:09.866Z,14.00
2023-01-11T20:59:14.771Z,7.85
2023-01-11T21:02:16.651Z,6.75
2023-01-11T21:05:18.699Z,7.70
2023-01-11T21:08:20.616Z,8.93
2023-01-11T21:11:22.864Z,7.03
2023-01-11T21:14:24.714Z,6.95
2023-01-11T21:17:26.599Z,6.25
2023-01-11T21:20:28.452Z,8.73
2023-01-11T21:23:30.457Z,9.02
2023-01-11T21:26:33.007Z,8.07
2023-01-11T21:29:36.278Z,8.38
2023-01-11T21:32:38.200Z,10.45
2023-01-11T21:35:40.056Z,7.72
2023-01-11T21:38:42.214Z,9.38
2023-01-11T21:41:44.510Z,7.68
2023-01-11T21:44:46.407Z,6.57
2023-01-11T21:47:48.251Z,6.28
2023-01-11T21:50:50.297Z,10.07
2023-01-11T21:53:52.284Z,9.77
2023-01-11T21:56:54.215Z,6.90
2023-01-11T21:59:56.056Z,6.28
2023-01-11T22:02:58.052Z,8.88
2023-01-11T22:06:01.447Z,9.48
2023-01-11T22:09:05.653Z,8.10
2023-01-11T22:12:08.463Z,8.95
2023-01-11T22:15:11.027Z,8.98
2023-01-11T22:18:14.563Z,7.68
2023-01-11T22:21:18.328Z,9.52
2023-01-11T22:24:20.179Z,8.00
2023-01-11T22:27:22.028Z,5.35
2023-01-11T22:30:24.151Z,6.43
2023-01-11T22:33:25.994Z,5.93
2023-01-11T22:36:28.956Z,8.55
2023-01-11T22:39:30.833Z,10.95
2023-01-11T22:42:32.791Z,5.45
2023-01-11T22:45:34.750Z,5.32
2023-01-11T22:48:36.611Z,5.47
2023-01-11T22:51:39.517Z,4.18
2023-01-11T22:54:41.392Z,9.10
2023-01-11T22:57:43.345Z,5.22
2023-01-11T23:00:45.201Z,9.55
2023-01-11T23:03:47.506Z,5.88
2023-01-11T23:06:49.340Z,5.82
2023-01-11T23:09:51.193Z,5.57
2023-01-11T23:12:53.073Z,6.15
2023-01-11T23:15:56.518Z,8.10
2023-01-11T23:18:58.501Z,7.20
2023-01-11T23:22:00.482Z,5.57
2023-01-11T23:25:02.280Z,5.60
2023-01-11T23:28:04.324Z,6.75
2023-01-11T23:31:17.817Z,4.43
2023-01-11T23:34:19.959Z,7.10
2023-01-11T23:37:21.821Z,7.10
2023-01-11T23:40:23.696Z,6.68
2023-01-11T23:43:25.712Z,11.48
2023-01-11T23:46:28.204Z,7.63
2023-01-11T23:49:31.539Z,10.13
2023-01-11T23:52:33.419Z,6.93
2023-01-11T23:55:35.319Z,7.00
2023-01-11T23:58:37.203Z,5.97
